Flight Track Log - Related Links

Times and Time Zones

All times are in EDT time to prevent confusion due to time zone crossing. See the SCX8701 flight status page for this flight to view local times or setup timezone preferences in your user account.

Time Position Orientation Groundspeed Altitude Reporting Facility
EDT Latitude Longitude Course Direction KTS MPH feet Rate Location/Type
Fri 06:19:32 AM 36.9361 -76.3169 264° West 156 180 600  Level Washington Center
Fri 06:20:46 AM 36.9294 -76.4000 264° West 239 275 3,300 2,591 Climbing Washington Center
Fri 06:21:44 AM 36.9183 -76.4778 260° West 253 291 6,300 2,670 Climbing Washington Center
Fri 06:26:59 AM 36.3973 -76.4708 204° Southwest 394 453 19,900 2,477 Climbing FlightAware ADS-B
Fri 06:27:57 AM 36.3025 -76.5250 204° Southwest 399 459 21,700 1,900 Climbing Washington Center
Fri 06:28:59 AM 36.2000 -76.5803 204° Southwest 404 465 23,700 1,850 Climbing Washington Center
Fri 06:29:57 AM 36.1053 -76.6589 214° Southwest 404 465 25,400 1,576 Climbing Washington Center
Fri 06:30:57 AM 36.0189 -76.7528 221° Southwest 415 478 26,800 1,388 Climbing Washington Center
Fri 06:31:58 AM 35.9303 -76.8489 221° Southwest 421 484 28,200 1,339 Climbing Washington Center
Fri 06:32:58 AM 35.8394 -76.9553 224° Southwest 434 499 29,500 1,488 Climbing Washington Center
Fri 06:33:59 AM 35.7464 -77.0558 221° Southwest 444 511 31,200 1,613 Climbing Washington Center
Fri 06:34:57 AM 35.6725 -77.1414 223° Southwest 444 511 32,700 1,462 Climbing Washington Center
Fri 06:35:58 AM 35.5833 -77.2394 222° Southwest 434 499 34,100 1,190 Climbing Washington Center
Fri 06:36:58 AM 35.4944 -77.3344 221° Southwest 429 494 35,100 1,000 Climbing Washington Center
Fri 06:37:58 AM 35.4033 -77.4319 221° Southwest 424 488 36,100 942 Climbing Washington Center
Fri 06:38:59 AM 35.3142 -77.5292 222° Southwest 424 488 37,000 966 Climbing Washington Center
Fri 06:39:56 AM 35.2250 -77.6236 221° Southwest 424 488 38,000 508 Climbing Washington Center
Fri 06:40:57 AM 35.1378 -77.7178 221° Southwest 424 488 38,000  Level Washington Center
Fri 06:41:58 AM 35.0483 -77.8119 221° Southwest 419 482 38,000  Level Washington Center
Fri 06:42:58 AM 34.9611 -77.9058 221° Southwest 419 482 38,000  Level Washington Center
Fri 06:43:58 AM 34.8736 -77.9994 221° Southwest 419 482 38,000 -50 Level Washington Center
Fri 06:44:58 AM 34.7775 -78.1081 223° Southwest 424 488 37,900  Descending Washington Center
Fri 06:45:58 AM 34.6881 -78.2011 221° Southwest 424 488 38,000 16 Climbing Washington Center
Fri 06:51:25 AM 34.2052 -78.7224 221° Southwest 427 491 38,000  Level FlightAware ADS-B (EFYL / YLI)
Fri 06:52:50 AM 34.0796 -78.8549 221° Southwest 428 493 38,000  Level FlightAware ADS-B (EFYL / YLI)
Fri 06:53:55 AM 33.9840 -78.9555 221° Southwest 428 493 38,000  Level FlightAware ADS-B (EFYL / YLI)
Fri 06:54:48 AM 33.9038 -79.0395 221° Southwest 430 495 38,000 -47 Level FlightAware ADS-B (EFYL / YLI)
Fri 06:56:03 AM 33.7725 -79.1500 221° Southwest 438 504 37,900  Descending Jacksonville Center
Fri 06:57:03 AM 33.6853 -79.2361 219° Southwest 433 498 38,000 50 Climbing Jacksonville Center
Fri 06:58:03 AM 33.5942 -79.3319 221° Southwest 433 498 38,000  Level Jacksonville Center
Fri 06:59:03 AM 33.5008 -79.4256 220° Southwest 433 498 38,000  Level Jacksonville Center
Fri 07:00:03 AM 33.4072 -79.5186 220° Southwest 439 505 38,000 -100 Level Jacksonville Center
Fri 07:01:03 AM 33.3181 -79.6139 222° Southwest 439 505 37,800 -600 Descending Jacksonville Center
Fri 07:02:03 AM 33.2244 -79.7044 219° Southwest 444 511 36,800 -950 Descending Jacksonville Center
Fri 07:03:03 AM 33.1328 -79.7969 220° Southwest 444 511 35,900 -950 Descending Jacksonville Center
Fri 07:04:03 AM 33.0389 -79.8919 220° Southwest 444 511 34,900 -950 Descending Jacksonville Center
Fri 07:05:03 AM 32.9472 -79.9814 219° Southwest 444 511 34,000 -450 Descending Jacksonville Center
Fri 07:06:03 AM 32.8469 -80.0689 216° Southwest 444 511 34,000 -50 Level Jacksonville Center
Fri 07:07:03 AM 32.7464 -80.1461 213° Southwest 444 511 33,900 -350 Descending Jacksonville Center
Fri 07:08:03 AM 32.6414 -80.2233 212° Southwest 444 511 33,300 -800 Descending Jacksonville Center
Fri 07:09:03 AM 32.5408 -80.2978 212° Southwest 444 511 32,300 -1,000 Descending Jacksonville Center
Fri 07:10:03 AM 32.4378 -80.3694 210° Southwest 439 505 31,300 -1,000 Descending Jacksonville Center
Fri 07:11:03 AM 32.3283 -80.4317 206° Southwest 434 499 30,300 -650 Descending Jacksonville Center
Fri 07:12:03 AM 32.2292 -80.4858 205° Southwest 410 472 30,000 -150 Descending Jacksonville Center
Fri 07:13:03 AM 32.1364 -80.5372 205° Southwest 402 463 30,000 -50 Level Jacksonville Center
Fri 07:14:03 AM 32.0225 -80.5989 205° Southwest 408 470 29,900 -550 Descending Jacksonville Center
Fri 07:15:03 AM 31.9194 -80.6603 207° Southwest 408 470 28,900 -950 Descending Jacksonville Center
Fri 07:16:03 AM 31.8261 -80.7067 203° Southwest 414 476 28,000 -1,000 Descending Jacksonville Center
Fri 07:17:03 AM 31.7125 -80.7703 205° Southwest 414 476 26,900 -1,050 Descending Jacksonville Center
Fri 07:18:03 AM 31.6111 -80.8264 205° Southwest 414 476 25,900 -950 Descending Jacksonville Center
Fri 07:19:03 AM 31.5242 -80.8744 205° Southwest 403 464 25,000 -1,050 Descending Jacksonville Center
Fri 07:20:03 AM 31.4144 -80.9331 205° Southwest 395 455 23,800 -1,450 Descending Jacksonville Center
Fri 07:21:03 AM 31.3275 -80.9808 205° Southwest 390 449 22,100 -1,650 Descending Jacksonville Center
Fri 07:22:03 AM 31.2258 -81.0364 205° Southwest 380 437 20,500 -1,950 Descending Jacksonville Center
Fri 07:23:03 AM 31.1431 -81.0817 205° Southwest 370 426 18,200 -2,085 Descending Jacksonville Center
Fri 07:24:01 AM 31.0478 -81.1297 203° Southwest 369 425 16,400 -1,150 Descending Jacksonville Center
Fri 07:25:03 AM 30.9567 -81.1822 206° Southwest 357 411 15,900 -198 Descending Jacksonville Center
Fri 07:26:02 AM 30.8675 -81.2275 204° Southwest 347 399 16,000 -700 Climbing Jacksonville Center
Fri 07:27:03 AM 30.7803 -81.2772 206° Southwest 357 411 14,500 -2,035 Descending Jacksonville Center
Fri 07:27:57 AM 30.6953 -81.3222 204° Southwest 352 405 12,100 -2,035 Descending Jacksonville Center
Fri 07:28:58 AM 30.6061 -81.3672 203° Southwest 350 403 10,600 -1,180 Descending Jacksonville Center
Fri 07:29:59 AM 30.5294 -81.4119 207° Southwest 300 345 9,700 -1,104 Descending Jacksonville Center
Fri 07:31:03 AM 30.4506 -81.4517 203° Southwest 307 353 8,300 -1,465 Descending Jacksonville Center
Fri 07:32:06 AM 30.3669 -81.4408 174° South 289 333 6,600 -1,350 Descending Jacksonville Center
Fri 07:33:03 AM 30.2958 -81.4297 172° South 280 322 5,600 -934 Descending Jacksonville Center
Fri 07:34:08 AM 30.2372 -81.4381 187° South 175 201 4,700 -1,200 Descending Jacksonville Center
Fri 07:35:08 AM 30.2253 -81.4861 254° West 157 181 3,100 -1,240 Descending Jacksonville Center
Fri 07:36:09 AM 30.2322 -81.5342 280° West 155 178 2,200 -787 Descending Jacksonville Center
Fri 07:37:10 AM 30.2306 -81.5847 268° West 152 175 1,500 -783 Descending Jacksonville Center
Fri 07:38:04 AM 30.2311 -81.6256 271° West 139 160 700 -889 Descending Jacksonville Center
Fri 07:40:00 AM 30.2333 -81.6667 245° Southwest  Level FlightAware Approximate

Login

Don't have an account? Register now (free) for customized features, flight alerts, and more!